Terminal Aerodrome Forecast
Issued by NWS

Home | Current Version | Previous Version | Text Only | Print | Product List | Glossary On
Versions: 1 2 3 4 5 6 7 8 9 10 11 12 13 14 15 16 17 18 19 20 21 22 23 24 25 26 27 28 29 30 31 32 33 34 35 36
000
FTUS43 KDMX 021406 AAA
TAFMCW
TAF AMD
KMCW 021406Z 0214/0312 VRB03KT 1/4SM FG BKN004
     FM021500 06004KT 1SM BR BKN008
     FM021600 02009KT 5SM SHRA BR BKN015 OVC020
     FM022200 33013KT P6SM VCSH SCT015 BKN025=

USA.gov is the U.S. government's official web portal to all federal, state and local government web resources and services.